CRL775 FMMI-FMEE
Flight info
| Callsign | CRL775 |
|---|---|
| Flight time | 1h 13m |
| Altitude | 39000 |
| Route | PIPRI1E TE UA401 UNKIK UNKIK2R |
| Aircraft | A339/H-SADE1E2E3GHIJ3J5M1P2RWXY/LB2D1 |
Departure
| Time | 2026-04-29 10:17 |
|---|---|
| Airport | Ivato International Airport (FMMI) |
Arrival
| Time | 2026-04-29 11:30 |
|---|---|
| Airport | Roland Garros Airport (FMEE) |
| Time | Latitude | Longitude | Altitude | Speed | Heading |
|---|---|---|---|---|---|
| 2026-04-29 09:59 | -18.79979 | 47.47831 | 4180 ft | 0 kts | 189° |
| 2026-04-29 10:06 | -18.79965 | 47.47834 | 4180 ft | 2 kts | 189° |
| 2026-04-29 10:06 | -18.79950 | 47.47836 | 4180 ft | 2 kts | 189° |
| 2026-04-29 10:06 | -18.79935 | 47.47839 | 4180 ft | 2 kts | 189° |
| 2026-04-29 10:06 | -18.79921 | 47.47842 | 4179 ft | 2 kts | 189° |
| 2026-04-29 10:07 | -18.79906 | 47.47845 | 4179 ft | 2 kts | 208° |
| 2026-04-29 10:07 | -18.79894 | 47.47855 | 4179 ft | 2 kts | 227° |
| 2026-04-29 10:07 | -18.79884 | 47.47868 | 4179 ft | 2 kts | 245° |
| 2026-04-29 10:07 | -18.79880 | 47.47883 | 4179 ft | 2 kts | 263° |
| 2026-04-29 10:08 | -18.79879 | 47.47897 | 4179 ft | 0 kts | 279° |
| 2026-04-29 10:08 | -18.79880 | 47.47902 | 4179 ft | 0 kts | 280° |
| 2026-04-29 10:10 | -18.79878 | 47.47893 | 4179 ft | 2 kts | 280° |
| 2026-04-29 10:10 | -18.79873 | 47.47859 | 4179 ft | 6 kts | 281° |
| 2026-04-29 10:10 | -18.79857 | 47.47800 | 4178 ft | 9 kts | 289° |
| 2026-04-29 10:11 | -18.79834 | 47.47725 | 4178 ft | 11 kts | 282° |
| 2026-04-29 10:11 | -18.79821 | 47.47646 | 4178 ft | 8 kts | 281° |
| 2026-04-29 10:11 | -18.79786 | 47.47600 | 4179 ft | 8 kts | 339° |
| 2026-04-29 10:11 | -18.79724 | 47.47601 | 4179 ft | 9 kts | 8° |
| 2026-04-29 10:12 | -18.79663 | 47.47593 | 4179 ft | 8 kts | 317° |
| 2026-04-29 10:12 | -18.79642 | 47.47527 | 4180 ft | 10 kts | 279° |
| 2026-04-29 10:12 | -18.79631 | 47.47452 | 4181 ft | 10 kts | 279° |
| 2026-04-29 10:12 | -18.79620 | 47.47378 | 4184 ft | 10 kts | 279° |
| 2026-04-29 10:13 | -18.79608 | 47.47295 | 4186 ft | 12 kts | 279° |
| 2026-04-29 10:13 | -18.79593 | 47.47193 | 4191 ft | 15 kts | 279° |
| 2026-04-29 10:13 | -18.79576 | 47.47077 | 4196 ft | 16 kts | 279° |
| 2026-04-29 10:13 | -18.79556 | 47.46949 | 4202 ft | 18 kts | 279° |
| 2026-04-29 10:14 | -18.79535 | 47.46810 | 4209 ft | 19 kts | 279° |
| 2026-04-29 10:14 | -18.79515 | 47.46665 | 4217 ft | 20 kts | 279° |
| 2026-04-29 10:14 | -18.79491 | 47.46538 | 4222 ft | 12 kts | 292° |
| 2026-04-29 10:14 | -18.79451 | 47.46484 | 4224 ft | 4 kts | 302° |
| 2026-04-29 10:15 | -18.79458 | 47.46469 | 4225 ft | 3 kts | 201° |
| 2026-04-29 10:15 | -18.79482 | 47.46482 | 4224 ft | 5 kts | 116° |
| 2026-04-29 10:15 | -18.79487 | 47.46501 | 4224 ft | 0 kts | 101° |
| 2026-04-29 10:16 | -18.79488 | 47.46503 | 4224 ft | 1 kts | 101° |
| 2026-04-29 10:16 | -18.79507 | 47.46621 | 4219 ft | 43 kts | 99° |
| 2026-04-29 10:16 | -18.79588 | 47.47158 | 4192 ft | 104 kts | 99° |
| 2026-04-29 10:16 | -18.79728 | 47.48106 | 4174 ft | 154 kts | 99° |
| 2026-04-29 10:17 | -18.79908 | 47.49343 | 4278 ft | 182 kts | 99° |
| 2026-04-29 10:17 | -18.80097 | 47.50628 | 4941 ft | 171 kts | 99° |
| 2026-04-29 10:17 | -18.80286 | 47.51855 | 5524 ft | 168 kts | 100° |
| 2026-04-29 10:17 | -18.80479 | 47.53070 | 6020 ft | 169 kts | 99° |
| 2026-04-29 10:18 | -18.80666 | 47.54316 | 6233 ft | 179 kts | 99° |
| 2026-04-29 10:18 | -18.80923 | 47.55674 | 6456 ft | 191 kts | 104° |
| 2026-04-29 10:18 | -18.81239 | 47.57067 | 6682 ft | 202 kts | 103° |
| 2026-04-29 10:18 | -18.81573 | 47.58571 | 6911 ft | 216 kts | 103° |
| 2026-04-29 10:19 | -18.81933 | 47.60193 | 7179 ft | 231 kts | 103° |
| 2026-04-29 10:19 | -18.82313 | 47.61917 | 7457 ft | 247 kts | 103° |
| 2026-04-29 10:19 | -18.82715 | 47.63749 | 7742 ft | 264 kts | 103° |
| 2026-04-29 10:19 | -18.83140 | 47.65689 | 8097 ft | 278 kts | 103° |
| 2026-04-29 10:20 | -18.83579 | 47.67702 | 8696 ft | 283 kts | 102° |
| 2026-04-29 10:20 | -18.84021 | 47.69725 | 9369 ft | 285 kts | 102° |
| 2026-04-29 10:20 | -18.84465 | 47.71761 | 10039 ft | 288 kts | 102° |
| 2026-04-29 10:20 | -18.84911 | 47.73815 | 10694 ft | 292 kts | 102° |
| 2026-04-29 10:21 | -18.85381 | 47.75978 | 11052 ft | 309 kts | 102° |
| 2026-04-29 10:21 | -18.85868 | 47.78217 | 11491 ft | 320 kts | 102° |
| 2026-04-29 10:21 | -18.86363 | 47.80503 | 12152 ft | 323 kts | 102° |
| 2026-04-29 10:21 | -18.86871 | 47.82849 | 12799 ft | 326 kts | 102° |
| 2026-04-29 10:22 | -18.87375 | 47.85177 | 13401 ft | 329 kts | 103° |
| 2026-04-29 10:22 | -18.87885 | 47.87534 | 14020 ft | 332 kts | 103° |
| 2026-04-29 10:22 | -18.88403 | 47.89930 | 14649 ft | 334 kts | 103° |
| 2026-04-29 10:22 | -18.88913 | 47.92310 | 15246 ft | 337 kts | 103° |
| 2026-04-29 10:23 | -18.89422 | 47.94719 | 15845 ft | 339 kts | 103° |
| 2026-04-29 10:23 | -18.89930 | 47.97138 | 16412 ft | 342 kts | 103° |
| 2026-04-29 10:23 | -18.90446 | 47.99601 | 16991 ft | 344 kts | 103° |
| 2026-04-29 10:23 | -18.90963 | 48.02069 | 17580 ft | 346 kts | 103° |
| 2026-04-29 10:24 | -18.91484 | 48.04553 | 18136 ft | 350 kts | 103° |
| 2026-04-29 10:24 | -18.92014 | 48.07084 | 18698 ft | 353 kts | 103° |
| 2026-04-29 10:24 | -18.92546 | 48.09630 | 19268 ft | 357 kts | 103° |
| 2026-04-29 10:24 | -18.93078 | 48.12176 | 19829 ft | 361 kts | 103° |
| 2026-04-29 10:25 | -18.93623 | 48.14787 | 20375 ft | 364 kts | 103° |
| 2026-04-29 10:25 | -18.94171 | 48.17411 | 20935 ft | 368 kts | 103° |
| 2026-04-29 10:25 | -18.94721 | 48.20049 | 21471 ft | 371 kts | 103° |
| 2026-04-29 10:25 | -18.95312 | 48.22688 | 22010 ft | 374 kts | 106° |
| 2026-04-29 10:26 | -18.96048 | 48.25350 | 22540 ft | 377 kts | 108° |
| 2026-04-29 10:26 | -18.96811 | 48.27993 | 23030 ft | 380 kts | 108° |
| 2026-04-29 10:26 | -18.97594 | 48.30696 | 23525 ft | 384 kts | 108° |
| 2026-04-29 10:26 | -18.98374 | 48.33387 | 23980 ft | 387 kts | 108° |
| 2026-04-29 10:27 | -18.99961 | 48.38882 | 24841 ft | 395 kts | 108° |
| 2026-04-29 10:27 | -19.00761 | 48.41659 | 25262 ft | 399 kts | 108° |
| 2026-04-29 10:27 | -19.01582 | 48.44510 | 25677 ft | 403 kts | 108° |
| 2026-04-29 10:28 | -19.02398 | 48.47345 | 26085 ft | 407 kts | 109° |
| 2026-04-29 10:28 | -19.03217 | 48.50194 | 26486 ft | 410 kts | 109° |
| 2026-04-29 10:28 | -19.04047 | 48.53085 | 26877 ft | 413 kts | 109° |
| 2026-04-29 10:28 | -19.04888 | 48.56017 | 27255 ft | 417 kts | 109° |
| 2026-04-29 10:29 | -19.05730 | 48.58958 | 27622 ft | 420 kts | 109° |
| 2026-04-29 10:29 | -19.06576 | 48.61907 | 27978 ft | 424 kts | 109° |
| 2026-04-29 10:29 | -19.07436 | 48.64910 | 28342 ft | 427 kts | 109° |
| 2026-04-29 10:29 | -19.08297 | 48.67918 | 28682 ft | 430 kts | 109° |
| 2026-04-29 10:30 | -19.09174 | 48.70979 | 29043 ft | 434 kts | 109° |
| 2026-04-29 10:30 | -19.10042 | 48.74009 | 29406 ft | 436 kts | 109° |
| 2026-04-29 10:30 | -19.10930 | 48.77115 | 29772 ft | 439 kts | 109° |
| 2026-04-29 10:30 | -19.11820 | 48.80230 | 30124 ft | 442 kts | 108° |
| 2026-04-29 10:31 | -19.12714 | 48.83361 | 30481 ft | 445 kts | 108° |
| 2026-04-29 10:31 | -19.13603 | 48.86483 | 30814 ft | 448 kts | 108° |
| 2026-04-29 10:31 | -19.14496 | 48.89620 | 31137 ft | 451 kts | 108° |
| 2026-04-29 10:31 | -19.15409 | 48.92825 | 31470 ft | 454 kts | 108° |
| 2026-04-29 10:32 | -19.16319 | 48.96024 | 31797 ft | 457 kts | 108° |
| 2026-04-29 10:32 | -19.17237 | 48.99253 | 32125 ft | 460 kts | 108° |
| 2026-04-29 10:32 | -19.18158 | 49.02496 | 32447 ft | 462 kts | 108° |
| 2026-04-29 10:32 | -19.19072 | 49.05723 | 32758 ft | 465 kts | 108° |
| 2026-04-29 10:33 | -19.20010 | 49.09037 | 33103 ft | 468 kts | 108° |
| 2026-04-29 10:33 | -19.20937 | 49.12313 | 33471 ft | 470 kts | 108° |
| 2026-04-29 10:33 | -19.21882 | 49.15655 | 33826 ft | 472 kts | 108° |
| 2026-04-29 10:33 | -19.22832 | 49.19011 | 34163 ft | 474 kts | 108° |
| 2026-04-29 10:34 | -19.23779 | 49.22362 | 34494 ft | 476 kts | 108° |
| 2026-04-29 10:34 | -19.24730 | 49.25730 | 34841 ft | 478 kts | 108° |
| 2026-04-29 10:34 | -19.25687 | 49.29123 | 35298 ft | 477 kts | 108° |
| 2026-04-29 10:34 | -19.26632 | 49.32474 | 35770 ft | 475 kts | 108° |
| 2026-04-29 10:35 | -19.27578 | 49.35834 | 36195 ft | 474 kts | 108° |
| 2026-04-29 10:35 | -19.28512 | 49.39149 | 36567 ft | 474 kts | 108° |
| 2026-04-29 10:35 | -19.29449 | 49.42477 | 36928 ft | 474 kts | 108° |
| 2026-04-29 10:35 | -19.30391 | 49.45831 | 37266 ft | 474 kts | 108° |
| 2026-04-29 10:36 | -19.31332 | 49.49178 | 37545 ft | 476 kts | 108° |
| 2026-04-29 10:36 | -19.32279 | 49.52549 | 37790 ft | 477 kts | 108° |
| 2026-04-29 10:36 | -19.33224 | 49.55918 | 38033 ft | 479 kts | 108° |
| 2026-04-29 10:36 | -19.34161 | 49.59262 | 38292 ft | 480 kts | 108° |
| 2026-04-29 10:37 | -19.35109 | 49.62647 | 38558 ft | 481 kts | 108° |
| 2026-04-29 10:37 | -19.36069 | 49.66077 | 38831 ft | 482 kts | 108° |
| 2026-04-29 10:37 | -19.37020 | 49.69477 | 38946 ft | 484 kts | 108° |
| 2026-04-29 10:38 | -19.38946 | 49.76378 | 38951 ft | 484 kts | 108° |
| 2026-04-29 10:38 | -19.40866 | 49.83266 | 38952 ft | 484 kts | 108° |
| 2026-04-29 10:39 | -19.42769 | 49.90104 | 38954 ft | 485 kts | 108° |
| 2026-04-29 10:39 | -19.44656 | 49.96909 | 38954 ft | 485 kts | 108° |
| 2026-04-29 10:40 | -19.46561 | 50.03787 | 38954 ft | 485 kts | 108° |
| 2026-04-29 10:40 | -19.48466 | 50.10648 | 38956 ft | 484 kts | 108° |
| 2026-04-29 10:41 | -19.50381 | 50.17547 | 38956 ft | 484 kts | 108° |
| 2026-04-29 10:41 | -19.52276 | 50.24396 | 38955 ft | 484 kts | 108° |
| 2026-04-29 10:42 | -19.54184 | 50.31312 | 38954 ft | 484 kts | 108° |
| 2026-04-29 10:42 | -19.56089 | 50.38232 | 38956 ft | 485 kts | 108° |
| 2026-04-29 10:43 | -19.57980 | 50.45114 | 38954 ft | 485 kts | 108° |
| 2026-04-29 10:43 | -19.59878 | 50.52038 | 38955 ft | 485 kts | 108° |
| 2026-04-29 10:44 | -19.61758 | 50.58903 | 38956 ft | 484 kts | 108° |
| 2026-04-29 10:44 | -19.63645 | 50.65807 | 38952 ft | 484 kts | 107° |
| 2026-04-29 10:45 | -19.65517 | 50.72661 | 38955 ft | 484 kts | 107° |
| 2026-04-29 10:45 | -19.67395 | 50.79551 | 38955 ft | 485 kts | 107° |
| 2026-04-29 10:46 | -19.69271 | 50.86446 | 38952 ft | 485 kts | 107° |
| 2026-04-29 10:46 | -19.71149 | 50.93359 | 38952 ft | 485 kts | 107° |
| 2026-04-29 10:47 | -19.73018 | 51.00253 | 38958 ft | 486 kts | 107° |
| 2026-04-29 10:47 | -19.74889 | 51.07162 | 38957 ft | 485 kts | 107° |
| 2026-04-29 10:48 | -19.76759 | 51.14078 | 38948 ft | 484 kts | 107° |
| 2026-04-29 10:48 | -19.78623 | 51.20983 | 38952 ft | 484 kts | 107° |
| 2026-04-29 10:49 | -19.80469 | 51.27841 | 38953 ft | 485 kts | 107° |
| 2026-04-29 10:49 | -19.82313 | 51.34698 | 38955 ft | 485 kts | 107° |
| 2026-04-29 10:50 | -19.84161 | 51.41585 | 38952 ft | 485 kts | 107° |
| 2026-04-29 10:50 | -19.86004 | 51.48457 | 38954 ft | 485 kts | 107° |
| 2026-04-29 10:51 | -19.87843 | 51.55331 | 38947 ft | 485 kts | 107° |
| 2026-04-29 10:51 | -19.89691 | 51.62243 | 38945 ft | 484 kts | 107° |
| 2026-04-29 10:52 | -19.91514 | 51.69074 | 38941 ft | 484 kts | 107° |
| 2026-04-29 10:52 | -19.93345 | 51.75953 | 38939 ft | 484 kts | 107° |
| 2026-04-29 10:53 | -19.95180 | 51.82856 | 38934 ft | 484 kts | 107° |
| 2026-04-29 10:53 | -19.96996 | 51.89701 | 38935 ft | 484 kts | 107° |
| 2026-04-29 10:54 | -19.98823 | 51.96597 | 38935 ft | 485 kts | 107° |
| 2026-04-29 10:54 | -20.00639 | 52.03462 | 38940 ft | 485 kts | 107° |
| 2026-04-29 10:55 | -20.02458 | 52.10350 | 38937 ft | 485 kts | 107° |
| 2026-04-29 10:55 | -20.04269 | 52.17222 | 38942 ft | 485 kts | 107° |
| 2026-04-29 10:56 | -20.06083 | 52.24115 | 38934 ft | 484 kts | 107° |
| 2026-04-29 10:56 | -20.07892 | 52.31002 | 38939 ft | 484 kts | 107° |
| 2026-04-29 10:57 | -20.09696 | 52.37882 | 38936 ft | 485 kts | 107° |
| 2026-04-29 10:57 | -20.11493 | 52.44746 | 38940 ft | 485 kts | 107° |
| 2026-04-29 10:58 | -20.13306 | 52.51684 | 38577 ft | 486 kts | 107° |
| 2026-04-29 10:58 | -20.14206 | 52.55133 | 37825 ft | 488 kts | 107° |
| 2026-04-29 10:58 | -20.15117 | 52.58633 | 37060 ft | 489 kts | 107° |
| 2026-04-29 10:58 | -20.16017 | 52.62090 | 36319 ft | 490 kts | 107° |
| 2026-04-29 10:59 | -20.16921 | 52.65568 | 35572 ft | 490 kts | 107° |
| 2026-04-29 10:59 | -20.17830 | 52.69064 | 34830 ft | 490 kts | 107° |
| 2026-04-29 10:59 | -20.18741 | 52.72572 | 34093 ft | 490 kts | 107° |
| 2026-04-29 10:59 | -20.19654 | 52.76092 | 33351 ft | 490 kts | 107° |
| 2026-04-29 11:00 | -20.20566 | 52.79612 | 32614 ft | 490 kts | 107° |
| 2026-04-29 11:00 | -20.21461 | 52.83071 | 32081 ft | 487 kts | 107° |
| 2026-04-29 11:00 | -20.22356 | 52.86544 | 31618 ft | 483 kts | 108° |
| 2026-04-29 11:00 | -20.23239 | 52.89961 | 31212 ft | 478 kts | 108° |
| 2026-04-29 11:01 | -20.24113 | 52.93346 | 30806 ft | 473 kts | 108° |
| 2026-04-29 11:01 | -20.24951 | 52.96739 | 30422 ft | 468 kts | 107° |
| 2026-04-29 11:01 | -20.25742 | 53.00080 | 30117 ft | 461 kts | 107° |
| 2026-04-29 11:01 | -20.26505 | 53.03337 | 29847 ft | 454 kts | 107° |
| 2026-04-29 11:02 | -20.27268 | 53.06601 | 29556 ft | 447 kts | 108° |
| 2026-04-29 11:02 | -20.28009 | 53.09764 | 29257 ft | 441 kts | 108° |
| 2026-04-29 11:02 | -20.28750 | 53.12919 | 28947 ft | 436 kts | 108° |
| 2026-04-29 11:02 | -20.29479 | 53.16026 | 28621 ft | 431 kts | 108° |
| 2026-04-29 11:03 | -20.30207 | 53.19117 | 28312 ft | 426 kts | 108° |
| 2026-04-29 11:03 | -20.30915 | 53.22121 | 27991 ft | 422 kts | 108° |
| 2026-04-29 11:03 | -20.31627 | 53.25143 | 27685 ft | 417 kts | 108° |
| 2026-04-29 11:03 | -20.32333 | 53.28149 | 27354 ft | 413 kts | 108° |
| 2026-04-29 11:04 | -20.33034 | 53.31138 | 27025 ft | 409 kts | 108° |
| 2026-04-29 11:04 | -20.33727 | 53.34089 | 26698 ft | 406 kts | 107° |
| 2026-04-29 11:04 | -20.34404 | 53.36982 | 26380 ft | 402 kts | 107° |
| 2026-04-29 11:04 | -20.35074 | 53.39851 | 26058 ft | 399 kts | 107° |
| 2026-04-29 11:05 | -20.35740 | 53.42702 | 25734 ft | 395 kts | 107° |
| 2026-04-29 11:05 | -20.36401 | 53.45533 | 25418 ft | 392 kts | 107° |
| 2026-04-29 11:05 | -20.37055 | 53.48337 | 25107 ft | 388 kts | 107° |
| 2026-04-29 11:05 | -20.37701 | 53.51103 | 24801 ft | 385 kts | 107° |
| 2026-04-29 11:06 | -20.38346 | 53.53873 | 24482 ft | 382 kts | 107° |
| 2026-04-29 11:06 | -20.38988 | 53.56633 | 24169 ft | 378 kts | 107° |
| 2026-04-29 11:06 | -20.39618 | 53.59337 | 23900 ft | 374 kts | 107° |
| 2026-04-29 11:06 | -20.40238 | 53.62008 | 23641 ft | 370 kts | 106° |
| 2026-04-29 11:07 | -20.40855 | 53.64662 | 23360 ft | 366 kts | 106° |
| 2026-04-29 11:07 | -20.41465 | 53.67288 | 23067 ft | 363 kts | 105° |
| 2026-04-29 11:07 | -20.42068 | 53.69893 | 22765 ft | 361 kts | 105° |
| 2026-04-29 11:07 | -20.42673 | 53.72501 | 22442 ft | 359 kts | 105° |
| 2026-04-29 11:08 | -20.43269 | 53.75074 | 22122 ft | 357 kts | 105° |
| 2026-04-29 11:08 | -20.43858 | 53.77626 | 21797 ft | 355 kts | 105° |
| 2026-04-29 11:08 | -20.44449 | 53.80189 | 21465 ft | 354 kts | 105° |
| 2026-04-29 11:08 | -20.45034 | 53.82719 | 21132 ft | 352 kts | 105° |
| 2026-04-29 11:09 | -20.45625 | 53.85276 | 20789 ft | 351 kts | 105° |
| 2026-04-29 11:09 | -20.46199 | 53.87767 | 20464 ft | 349 kts | 105° |
| 2026-04-29 11:09 | -20.46780 | 53.90286 | 20136 ft | 348 kts | 105° |
| 2026-04-29 11:09 | -20.47358 | 53.92798 | 19808 ft | 347 kts | 105° |
| 2026-04-29 11:10 | -20.47928 | 53.95270 | 19484 ft | 345 kts | 105° |
| 2026-04-29 11:10 | -20.48499 | 53.97752 | 19149 ft | 344 kts | 105° |
| 2026-04-29 11:10 | -20.49066 | 54.00214 | 18822 ft | 343 kts | 105° |
| 2026-04-29 11:10 | -20.49637 | 54.02699 | 18491 ft | 342 kts | 105° |
| 2026-04-29 11:11 | -20.50193 | 54.05122 | 18169 ft | 341 kts | 105° |
| 2026-04-29 11:11 | -20.50755 | 54.07566 | 17836 ft | 340 kts | 105° |
| 2026-04-29 11:11 | -20.51319 | 54.10028 | 17493 ft | 339 kts | 105° |
| 2026-04-29 11:11 | -20.51873 | 54.12442 | 17164 ft | 339 kts | 105° |
| 2026-04-29 11:12 | -20.52435 | 54.14894 | 16836 ft | 338 kts | 105° |
| 2026-04-29 11:12 | -20.52990 | 54.17319 | 16513 ft | 337 kts | 105° |
| 2026-04-29 11:12 | -20.53547 | 54.19753 | 16202 ft | 336 kts | 105° |
| 2026-04-29 11:12 | -20.54107 | 54.22201 | 15884 ft | 335 kts | 105° |
| 2026-04-29 11:13 | -20.54676 | 54.24687 | 15554 ft | 333 kts | 105° |
| 2026-04-29 11:13 | -20.55226 | 54.27097 | 15239 ft | 332 kts | 104° |
| 2026-04-29 11:13 | -20.55785 | 54.29541 | 14912 ft | 331 kts | 104° |
| 2026-04-29 11:13 | -20.56334 | 54.31949 | 14591 ft | 330 kts | 104° |
| 2026-04-29 11:14 | -20.56880 | 54.34342 | 14263 ft | 329 kts | 104° |
| 2026-04-29 11:14 | -20.57432 | 54.36766 | 13938 ft | 327 kts | 104° |
| 2026-04-29 11:14 | -20.57973 | 54.39146 | 13616 ft | 326 kts | 104° |
| 2026-04-29 11:14 | -20.58507 | 54.41499 | 13297 ft | 325 kts | 103° |
| 2026-04-29 11:15 | -20.59046 | 54.43871 | 12981 ft | 323 kts | 103° |
| 2026-04-29 11:15 | -20.59577 | 54.46214 | 12657 ft | 322 kts | 103° |
| 2026-04-29 11:15 | -20.60116 | 54.48591 | 12339 ft | 320 kts | 103° |
| 2026-04-29 11:15 | -20.60644 | 54.50920 | 12028 ft | 319 kts | 103° |
| 2026-04-29 11:16 | -20.61174 | 54.53261 | 11714 ft | 317 kts | 103° |
| 2026-04-29 11:16 | -20.61698 | 54.55577 | 11393 ft | 316 kts | 103° |
| 2026-04-29 11:16 | -20.62219 | 54.57880 | 11074 ft | 315 kts | 103° |
| 2026-04-29 11:16 | -20.62739 | 54.60178 | 10758 ft | 313 kts | 103° |
| 2026-04-29 11:17 | -20.63260 | 54.62484 | 10435 ft | 312 kts | 103° |
| 2026-04-29 11:17 | -20.63775 | 54.64765 | 10148 ft | 310 kts | 103° |
| 2026-04-29 11:17 | -20.64281 | 54.67012 | 10040 ft | 300 kts | 103° |
| 2026-04-29 11:17 | -20.64766 | 54.69168 | 10000 ft | 290 kts | 103° |
| 2026-04-29 11:18 | -20.65239 | 54.71269 | 9858 ft | 283 kts | 103° |
| 2026-04-29 11:18 | -20.65708 | 54.73348 | 9557 ft | 283 kts | 103° |
| 2026-04-29 11:18 | -20.65964 | 54.74484 | 9403 ft | 283 kts | 103° |
| 2026-04-29 11:18 | -20.66427 | 54.76538 | 9123 ft | 282 kts | 103° |
| 2026-04-29 11:19 | -20.66891 | 54.78598 | 8851 ft | 281 kts | 103° |
| 2026-04-29 11:19 | -20.67347 | 54.80628 | 8587 ft | 279 kts | 103° |
| 2026-04-29 11:19 | -20.67806 | 54.82671 | 8315 ft | 278 kts | 103° |
| 2026-04-29 11:19 | -20.68253 | 54.84667 | 8049 ft | 278 kts | 103° |
| 2026-04-29 11:20 | -20.68704 | 54.86676 | 7781 ft | 277 kts | 103° |
| 2026-04-29 11:20 | -20.69159 | 54.88708 | 7512 ft | 276 kts | 103° |
| 2026-04-29 11:20 | -20.69609 | 54.90713 | 7251 ft | 275 kts | 103° |
| 2026-04-29 11:20 | -20.70057 | 54.92712 | 6992 ft | 274 kts | 103° |
| 2026-04-29 11:21 | -20.70507 | 54.94725 | 6727 ft | 273 kts | 103° |
| 2026-04-29 11:21 | -20.70951 | 54.96708 | 6472 ft | 272 kts | 103° |
| 2026-04-29 11:21 | -20.71394 | 54.98689 | 6215 ft | 271 kts | 103° |
| 2026-04-29 11:21 | -20.71835 | 55.00662 | 5956 ft | 270 kts | 103° |
| 2026-04-29 11:22 | -20.72280 | 55.02656 | 5692 ft | 269 kts | 103° |
| 2026-04-29 11:22 | -20.72720 | 55.04623 | 5434 ft | 268 kts | 103° |
| 2026-04-29 11:22 | -20.73156 | 55.06576 | 5177 ft | 267 kts | 102° |
| 2026-04-29 11:22 | -20.73595 | 55.08543 | 4918 ft | 267 kts | 102° |
| 2026-04-29 11:23 | -20.74022 | 55.10459 | 4664 ft | 266 kts | 102° |
| 2026-04-29 11:23 | -20.74449 | 55.12380 | 4410 ft | 266 kts | 102° |
| 2026-04-29 11:23 | -20.74879 | 55.14316 | 4153 ft | 265 kts | 102° |
| 2026-04-29 11:23 | -20.75301 | 55.16218 | 3902 ft | 265 kts | 102° |
| 2026-04-29 11:24 | -20.75729 | 55.18145 | 3648 ft | 264 kts | 102° |
| 2026-04-29 11:24 | -20.76153 | 55.20056 | 3397 ft | 264 kts | 102° |
| 2026-04-29 11:24 | -20.76578 | 55.21965 | 3145 ft | 263 kts | 102° |
| 2026-04-29 11:24 | -20.76996 | 55.23846 | 2986 ft | 259 kts | 102° |
| 2026-04-29 11:25 | -20.77408 | 55.25701 | 2978 ft | 249 kts | 102° |
| 2026-04-29 11:25 | -20.77839 | 55.27446 | 2976 ft | 239 kts | 107° |
| 2026-04-29 11:25 | -20.78443 | 55.29078 | 2975 ft | 230 kts | 113° |
| 2026-04-29 11:25 | -20.79151 | 55.30606 | 2986 ft | 231 kts | 115° |
| 2026-04-29 11:26 | -20.80583 | 55.33587 | 2978 ft | 214 kts | 114° |
| 2026-04-29 11:26 | -20.81244 | 55.34996 | 2968 ft | 203 kts | 114° |
| 2026-04-29 11:26 | -20.81868 | 55.36339 | 2815 ft | 200 kts | 114° |
| 2026-04-29 11:27 | -20.82494 | 55.37693 | 2575 ft | 199 kts | 114° |
| 2026-04-29 11:27 | -20.83111 | 55.39023 | 2305 ft | 197 kts | 114° |
| 2026-04-29 11:27 | -20.83707 | 55.40304 | 2053 ft | 187 kts | 114° |
| 2026-04-29 11:27 | -20.84273 | 55.41518 | 1827 ft | 179 kts | 114° |
| 2026-04-29 11:28 | -20.84825 | 55.42702 | 1603 ft | 171 kts | 113° |
| 2026-04-29 11:28 | -20.85346 | 55.43819 | 1390 ft | 164 kts | 113° |
| 2026-04-29 11:28 | -20.85846 | 55.44893 | 1190 ft | 157 kts | 113° |
| 2026-04-29 11:28 | -20.86325 | 55.45919 | 997 ft | 150 kts | 113° |
| 2026-04-29 11:29 | -20.86784 | 55.46903 | 813 ft | 143 kts | 114° |
| 2026-04-29 11:29 | -20.87227 | 55.47854 | 645 ft | 143 kts | 113° |
| 2026-04-29 11:29 | -20.87674 | 55.48811 | 468 ft | 143 kts | 113° |
| 2026-04-29 11:29 | -20.88112 | 55.49764 | 290 ft | 142 kts | 114° |
| 2026-04-29 11:30 | -20.88556 | 55.50713 | 122 ft | 139 kts | 114° |
| 2026-04-29 11:30 | -20.88946 | 55.51540 | 132 ft | 103 kts | 116° |
| 2026-04-29 11:30 | -20.89164 | 55.52004 | 136 ft | 37 kts | 116° |
| 2026-04-29 11:30 | -20.89243 | 55.52175 | 137 ft | 14 kts | 116° |
| 2026-04-29 11:31 | -20.89296 | 55.52230 | 138 ft | 8 kts | 174° |
| 2026-04-29 11:31 | -20.89345 | 55.52215 | 142 ft | 5 kts | 209° |
| 2026-04-29 11:31 | -20.89372 | 55.52198 | 144 ft | 3 kts | 212° |
| 2026-04-29 11:31 | -20.89387 | 55.52187 | 145 ft | 2 kts | 216° |
| 2026-04-29 11:32 | -20.89405 | 55.52161 | 147 ft | 6 kts | 250° |
| 2026-04-29 11:32 | -20.89387 | 55.52090 | 148 ft | 14 kts | 296° |
| 2026-04-29 11:32 | -20.89329 | 55.51968 | 147 ft | 20 kts | 296° |
| 2026-04-29 11:32 | -20.89263 | 55.51827 | 148 ft | 21 kts | 296° |
| 2026-04-29 11:33 | -20.89198 | 55.51688 | 148 ft | 20 kts | 296° |
| 2026-04-29 11:33 | -20.89133 | 55.51546 | 146 ft | 21 kts | 296° |
| 2026-04-29 11:33 | -20.89064 | 55.51400 | 144 ft | 20 kts | 296° |
| 2026-04-29 11:33 | -20.88998 | 55.51260 | 142 ft | 21 kts | 296° |
| 2026-04-29 11:34 | -20.88957 | 55.51170 | 140 ft | 5 kts | 287° |
| 2026-04-29 11:34 | -20.88970 | 55.51140 | 142 ft | 4 kts | 218° |
| 2026-04-29 11:34 | -20.88984 | 55.51130 | 143 ft | 1 kts | 213° |
| 2026-04-29 11:34 | -20.89000 | 55.51120 | 145 ft | 2 kts | 207° |
| 2026-04-29 11:35 | -20.89012 | 55.51114 | 146 ft | 0 kts | 206° |
| 2026-04-29 11:35 | -20.89014 | 55.51112 | 146 ft | 0 kts | 206° |